Time;durP1;ratioP1;P1;durP2;ratioP2;P2;SDS_P1;SDS_P2;PMS_P1;PMS_P2;Temp;Humidity;BMP_temperature;BMP_pressure;BME280_temperature;BME280_humidity;BME280_pressure;Samples;Min_cycle;Max_cycle;Signal;HPM_P1;HPM_P2
2023/03/04 00:01:36;;;;;;;10.07;4.30;;;8.40;55.60;;;;;;5008942;28;20038;-48
2023/03/04 00:04:03;;;;;;;9.75;4.68;;;8.40;55.60;;;;;;5009389;28;20453;-52
2023/03/04 00:06:34;;;;;;;11.55;4.55;;;8.40;55.60;;;;;;5009749;28;20037;-50
2023/03/04 00:09:02;;;;;;;8.73;4.93;;;8.40;55.60;;;;;;5009610;28;20104;-49
2023/03/04 00:11:30;;;;;;;9.98;4.43;;;8.50;55.80;;;;;;5008170;28;20042;-49
2023/03/04 00:14:17;;;;;;;7.15;3.22;;;8.50;55.70;;;;;;5008891;28;20048;-49
2023/03/04 00:16:48;;;;;;;6.85;3.90;;;8.50;55.60;;;;;;5009920;28;20033;-53
2023/03/04 00:19:17;;;;;;;7.65;3.60;;;8.50;55.60;;;;;;5009400;28;20041;-50
2023/03/04 00:21:45;;;;;;;8.90;3.58;;;8.50;55.50;;;;;;5008302;28;20412;-53
2023/03/04 00:24:13;;;;;;;10.35;3.85;;;8.50;55.40;;;;;;5008787;28;20050;-53
2023/03/04 00:26:45;;;;;;;7.63;3.47;;;8.50;55.40;;;;;;5009544;28;20388;-54
2023/03/04 00:29:14;;;;;;;8.70;3.38;;;8.50;55.60;;;;;;5009343;28;20040;-53
2023/03/04 00:31:41;;;;;;;9.10;3.65;;;8.50;55.50;;;;;;5009290;28;20145;-51
2023/03/04 00:34:13;;;;;;;6.95;3.15;;;8.50;55.50;;;;;;5023952;28;20108;-53
2023/03/04 00:36:43;;;;;;;7.00;3.38;;;8.50;55.50;;;;;;5009102;28;20809;-52
2023/03/04 00:39:14;;;;;;;7.80;3.30;;;8.60;55.50;;;;;;5009127;28;20042;-50
2023/03/04 00:41:41;;;;;;;5.35;3.10;;;8.60;55.30;;;;;;5007215;28;20038;-53
2023/03/04 00:44:07;;;;;;;11.52;3.50;;;8.60;55.30;;;;;;5008518;28;20050;-48
2023/03/04 00:46:36;;;;;;;5.95;3.13;;;8.50;55.40;;;;;;5008235;28;20068;-51
2023/03/04 00:49:05;;;;;;;6.03;3.00;;;8.60;55.50;;;;;;5012028;28;20042;-52
2023/03/04 00:51:32;;;;;;;9.85;3.20;;;8.50;55.50;;;;;;5010063;28;20046;-51
2023/03/04 00:54:01;;;;;;;10.35;3.33;;;8.60;55.40;;;;;;5012894;28;20038;-51
2023/03/04 00:56:29;;;;;;;11.23;3.38;;;8.60;55.40;;;;;;5012840;28;20589;-53
2023/03/04 00:58:58;;;;;;;8.52;2.90;;;8.60;55.50;;;;;;5013561;28;20041;-48
2023/03/04 01:01:28;;;;;;;9.88;3.08;;;8.60;55.60;;;;;;5009965;28;20038;-48
2023/03/04 01:03:55;;;;;;;9.07;3.67;;;8.60;56.00;;;;;;5012609;28;20096;-48
2023/03/04 01:06:21;;;;;;;13.95;3.65;;;8.60;55.80;;;;;;5027635;28;20049;-51
2023/03/04 01:08:48;;;;;;;8.95;3.38;;;8.60;55.70;;;;;;5011593;28;20050;-52
2023/03/04 01:11:17;;;;;;;5.40;2.88;;;8.60;55.70;;;;;;5011764;28;20046;-50
2023/03/04 01:13:44;;;;;;;11.07;3.15;;;8.60;55.80;;;;;;5028177;28;20054;-50
2023/03/04 01:16:13;;;;;;;9.43;2.97;;;8.60;55.70;;;;;;5011826;28;20046;-50
2023/03/04 01:18:41;;;;;;;9.40;3.80;;;8.60;55.70;;;;;;5011494;28;20056;-50
2023/03/04 01:21:08;;;;;;;11.02;3.95;;;8.60;55.60;;;;;;5009606;28;20395;-50
2023/03/04 01:23:35;;;;;;;13.43;4.32;;;8.60;55.60;;;;;;5010850;28;20050;-52
2023/03/04 01:26:03;;;;;;;10.13;3.28;;;8.60;55.60;;;;;;5010435;28;20056;-50
2023/03/04 01:28:37;;;;;;;9.75;4.05;;;8.60;55.50;;;;;;5028135;28;20692;-50
2023/03/04 01:31:10;;;;;;;7.93;3.13;;;8.60;55.60;;;;;;5010228;28;20125;-54
2023/03/04 01:33:37;;;;;;;7.63;3.50;;;8.60;55.80;;;;;;5011349;28;20088;-49
2023/03/04 01:36:05;;;;;;;8.85;3.17;;;8.60;55.80;;;;;;5010628;28;20092;-52
2023/03/04 01:38:34;;;;;;;9.75;2.70;;;8.60;55.90;;;;;;5011113;28;20096;-52
2023/03/04 01:41:03;;;;;;;10.07;3.58;;;8.60;55.90;;;;;;5009537;28;20038;-48
2023/03/04 01:43:31;;;;;;;8.07;3.47;;;8.60;55.80;;;;;;4994824;28;21774;-52
2023/03/04 01:46:00;;;;;;;10.20;3.53;;;8.50;55.80;;;;;;5011710;28;20128;-51
2023/03/04 01:48:35;;;;;;;8.15;3.30;;;8.60;55.80;;;;;;5012987;28;20129;-53
2023/03/04 01:51:04;;;;;;;11.32;3.30;;;8.60;56.00;;;;;;5006335;28;20054;-49
2023/03/04 01:53:32;;;;;;;7.43;3.30;;;8.50;56.00;;;;;;5006797;28;20406;-54
2023/03/04 01:56:34;;;;;;;10.45;3.15;;;8.50;56.00;;;;;;5010237;28;20049;-50
2023/03/04 01:59:07;;;;;;;5.95;3.22;;;8.50;56.20;;;;;;5011179;28;20072;-53
2023/03/04 02:01:35;;;;;;;10.60;3.22;;;8.50;56.00;;;;;;5009808;28;20414;-50
2023/03/04 02:04:08;;;;;;;13.30;3.83;;;8.50;55.90;;;;;;5011453;28;20038;-51
2023/03/04 02:06:40;;;;;;;8.38;3.50;;;8.50;56.10;;;;;;5027050;28;20038;-48
2023/03/04 02:09:16;;;;;;;11.98;4.05;;;8.50;56.00;;;;;;5011517;28;20050;-48
2023/03/04 02:11:48;;;;;;;8.20;3.63;;;8.50;56.10;;;;;;5009470;28;20144;-52
2023/03/04 02:14:18;;;;;;;9.95;3.72;;;8.50;56.30;;;;;;5008377;28;20046;-49
2023/03/04 02:16:47;;;;;;;12.32;3.20;;;8.50;56.40;;;;;;5011953;28;20038;-52
2023/03/04 02:19:41;;;;;;;6.32;3.42;;;8.50;56.50;;;;;;5010744;28;20045;-51
2023/03/04 02:22:08;;;;;;;8.35;3.22;;;8.50;57.10;;;;;;5010121;28;20048;-51
2023/03/04 02:25:00;;;;;;;8.10;3.20;;;8.50;56.40;;;;;;5019502;28;20045;-48
2023/03/04 02:27:27;;;;;;;7.30;3.08;;;8.50;56.90;;;;;;5010637;28;20054;-47
2023/03/04 02:29:54;;;;;;;7.75;2.95;;;8.50;56.40;;;;;;5009738;28;20030;-49
2023/03/04 02:32:23;;;;;;;9.85;3.95;;;8.50;56.40;;;;;;5009496;28;20045;-49
2023/03/04 02:34:50;;;;;;;9.68;3.33;;;8.50;56.50;;;;;;5025817;28;20058;-48
2023/03/04 02:37:20;;;;;;;7.72;3.22;;;8.40;56.40;;;;;;5011143;28;20124;-47
2023/03/04 02:39:50;;;;;;;10.38;3.55;;;8.50;57.20;;;;;;5009997;28;20618;-50
2023/03/04 02:42:19;;;;;;;10.60;3.28;;;8.40;56.60;;;;;;5008746;28;20038;-51
2023/03/04 02:44:49;;;;;;;14.27;3.67;;;8.50;56.70;;;;;;5025593;28;20533;-50
2023/03/04 02:47:23;;;;;;;10.13;3.92;;;8.50;56.60;;;;;;5010107;28;20045;-49
2023/03/04 02:49:53;;;;;;;8.23;3.38;;;8.40;56.50;;;;;;5011352;28;20727;-49
2023/03/04 02:52:27;;;;;;;10.00;3.40;;;8.50;56.60;;;;;;5008083;28;20052;-50
2023/03/04 02:54:56;;;;;;;8.98;3.10;;;8.50;56.80;;;;;;5019481;28;20133;-50
2023/03/04 02:57:26;;;;;;;8.77;2.50;;;8.50;57.40;;;;;;5011634;28;20050;-51
2023/03/04 02:59:53;;;;;;;6.70;3.00;;;8.50;56.80;;;;;;5026246;28;20077;-47
2023/03/04 03:02:26;;;;;;;9.98;3.15;;;8.50;56.90;;;;;;5008589;28;20041;-50
2023/03/04 03:04:58;;;;;;;11.43;3.67;;;8.50;57.10;;;;;;5009120;28;20041;-48
2023/03/04 03:07:26;;;;;;;13.85;3.72;;;8.50;57.20;;;;;;5010886;28;20054;-49
2023/03/04 03:09:58;;;;;;;7.30;3.28;;;8.40;57.10;;;;;;5009201;28;20383;-48
2023/03/04 03:12:24;;;;;;;11.75;3.53;;;8.40;57.30;;;;;;5008596;28;20144;-49
2023/03/04 03:14:52;;;;;;;6.72;3.13;;;8.40;57.10;;;;;;5009774;28;20069;-50
2023/03/04 03:17:25;;;;;;;11.38;4.00;;;8.50;57.20;;;;;;5008784;28;20072;-51
2023/03/04 03:19:58;;;;;;;9.30;2.95;;;8.50;57.20;;;;;;5008966;28;20049;-50
2023/03/04 03:22:27;;;;;;;8.77;3.30;;;8.50;57.20;;;;;;5008925;28;20427;-49
2023/03/04 03:24:58;;;;;;;10.20;3.70;;;8.50;57.10;;;;;;5002349;28;20130;-51
2023/03/04 03:27:29;;;;;;;17.20;3.65;;;8.40;57.00;;;;;;5010935;28;20100;-48
2023/03/04 03:30:05;;;;;;;10.65;2.97;;;8.40;57.00;;;;;;5005171;28;20629;-49
2023/03/04 03:32:35;;;;;;;10.93;3.13;;;8.40;56.90;;;;;;5007856;28;20053;-48
2023/03/04 03:35:02;;;;;;;9.60;2.75;;;8.40;56.90;;;;;;5009745;28;20042;-51
2023/03/04 03:37:31;;;;;;;8.27;3.72;;;8.40;56.90;;;;;;5010534;28;20469;-51
2023/03/04 03:40:00;;;;;;;11.20;3.55;;;8.40;56.90;;;;;;5009463;28;20037;-49
2023/03/04 03:42:29;;;;;;;7.03;3.57;;;8.40;56.90;;;;;;5008708;28;20096;-48
2023/03/04 03:44:56;;;;;;;13.07;3.22;;;8.40;56.80;;;;;;5009346;28;20049;-50
2023/03/04 03:47:29;;;;;;;9.15;3.33;;;8.40;56.70;;;;;;5010292;28;20042;-53
2023/03/04 03:49:57;;;;;;;11.82;3.58;;;8.40;56.90;;;;;;5009772;28;20038;-48
2023/03/04 03:52:27;;;;;;;11.38;3.42;;;8.40;56.70;;;;;;5008712;28;20038;-49
2023/03/04 03:54:55;;;;;;;10.25;3.42;;;8.40;56.70;;;;;;5002676;28;20057;-52
2023/03/04 03:57:27;;;;;;;11.07;3.15;;;8.40;56.70;;;;;;5009772;28;20123;-51
2023/03/04 03:59:55;;;;;;;9.23;2.88;;;8.40;56.80;;;;;;5009636;28;20058;-51
2023/03/04 04:02:26;;;;;;;10.48;3.10;;;8.40;56.70;;;;;;5008367;28;20045;-52
2023/03/04 04:04:56;;;;;;;;;;;8.40;56.70;;;;;;5009811;28;20560;-49
2023/03/04 04:07:29;;;;;;;9.73;2.90;;;8.50;56.80;;;;;;5009733;28;19921;-50
2023/03/04 04:09:58;;;;;;;10.30;2.70;;;8.50;56.50;;;;;;5008630;28;20111;-50
2023/03/04 04:12:30;;;;;;;10.63;3.00;;;8.50;56.70;;;;;;5008904;28;20068;-50
2023/03/04 04:14:59;;;;;;;10.98;3.38;;;8.50;56.80;;;;;;5009667;28;20046;-53
2023/03/04 04:17:25;;;;;;;12.55;3.65;;;8.40;56.70;;;;;;5010040;28;20030;-53
2023/03/04 04:19:52;;;;;;;10.70;2.92;;;8.50;56.80;;;;;;5007924;28;20784;-51
2023/03/04 04:22:26;;;;;;;10.10;2.78;;;8.40;56.90;;;;;;5008050;28;20422;-49
2023/03/04 04:24:53;;;;;;;7.78;2.78;;;8.50;57.00;;;;;;5008929;28;20037;-49
2023/03/04 04:27:24;;;;;;;4.70;2.58;;;8.40;57.00;;;;;;5009802;28;20092;-50
2023/03/04 04:29:51;;;;;;;9.55;3.60;;;8.50;57.10;;;;;;5008714;28;20046;-49
2023/03/04 04:32:23;;;;;;;7.10;3.10;;;8.50;57.20;;;;;;5009033;28;20080;-51
2023/03/04 04:34:55;;;;;;;11.65;2.78;;;8.50;57.20;;;;;;5023875;28;20355;-49
2023/03/04 04:37:24;;;;;;;10.55;3.10;;;8.50;57.20;;;;;;5009006;28;20069;-49
2023/03/04 04:39:51;;;;;;;11.95;3.35;;;8.50;57.10;;;;;;5009398;28;20617;-51
2023/03/04 04:42:17;;;;;;;7.32;3.72;;;8.50;57.00;;;;;;5008054;28;20688;-51
2023/03/04 04:44:44;;;;;;;6.40;3.00;;;8.50;57.00;;;;;;5008385;28;20045;-49
2023/03/04 04:47:16;;;;;;;14.70;3.35;;;8.50;57.50;;;;;;5009680;28;20050;-48
2023/03/04 04:49:54;;;;;;;;;;;;;;;;;;;;;
2023/03/04 04:52:28;;;;;;;8.80;2.60;;;8.50;57.00;;;;;;5008145;28;20049;-51
2023/03/04 04:54:54;;;;;;;12.85;2.50;;;8.50;57.00;;;;;;5001766;28;20042;-49
2023/03/04 04:57:24;;;;;;;10.05;3.05;;;8.50;57.10;;;;;;5008505;28;20142;-50
2023/03/04 04:59:54;;;;;;;11.25;3.45;;;8.50;57.20;;;;;;5008364;28;20410;-49
2023/03/04 05:02:25;;;;;;;5.35;2.72;;;8.50;57.00;;;;;;5009019;28;20049;-51
2023/03/04 05:04:54;;;;;;;12.32;3.55;;;8.50;56.90;;;;;;5001749;28;20041;-53
2023/03/04 05:07:21;;;;;;;7.28;2.22;;;8.50;56.90;;;;;;5009358;28;20054;-50
2023/03/04 05:09:55;;;;;;;10.63;3.08;;;8.50;56.80;;;;;;5007663;28;20120;-50
2023/03/04 05:12:24;;;;;;;10.98;2.88;;;8.50;57.00;;;;;;5008026;28;20049;-47
2023/03/04 05:14:52;;;;;;;8.15;2.60;;;8.50;57.00;;;;;;5007783;28;20042;-50
2023/03/04 05:17:19;;;;;;;11.20;2.70;;;8.50;57.00;;;;;;5009373;28;20088;-51
2023/03/04 05:19:46;;;;;;;7.63;2.42;;;8.50;57.00;;;;;;5007953;28;20080;-54
2023/03/04 05:22:13;;;;;;;9.55;2.30;;;8.50;57.10;;;;;;5007769;28;20503;-49
2023/03/04 05:24:46;;;;;;;6.88;3.00;;;8.50;57.10;;;;;;5007691;28;20038;-53
2023/03/04 05:27:18;;;;;;;6.53;2.08;;;8.50;57.20;;;;;;5009411;28;20511;-49
2023/03/04 05:29:45;;;;;;;8.75;2.30;;;8.50;57.40;;;;;;5007767;28;20050;-48
2023/03/04 05:32:12;;;;;;;8.38;2.38;;;8.50;57.30;;;;;;5008810;28;20053;-53
2023/03/04 05:34:41;;;;;;;6.85;2.38;;;8.50;57.30;;;;;;5009675;28;20057;-50
2023/03/04 05:37:10;;;;;;;8.20;2.95;;;8.50;57.30;;;;;;5012250;28;20125;-50
2023/03/04 05:39:37;;;;;;;7.97;2.63;;;8.50;57.40;;;;;;5010786;28;20112;-51
2023/03/04 05:42:15;;;;;;;10.68;2.53;;;8.50;57.50;;;;;;5010741;28;20048;-48
2023/03/04 05:44:45;;;;;;;8.45;2.30;;;8.50;57.60;;;;;;5011169;28;20581;-49
2023/03/04 05:47:13;;;;;;;4.65;2.53;;;8.50;57.70;;;;;;5027851;28;20108;-48
2023/03/04 05:49:43;;;;;;;10.45;2.33;;;8.50;57.80;;;;;;5011616;28;20088;-51
2023/03/04 05:52:12;;;;;;;12.05;3.25;;;8.50;57.80;;;;;;5010900;28;20053;-51
2023/03/04 05:54:45;;;;;;;13.50;3.38;;;8.50;58.00;;;;;;5010930;28;20050;-47
2023/03/04 05:57:11;;;;;;;8.43;2.42;;;8.50;58.00;;;;;;5012331;28;20064;-50
2023/03/04 05:59:38;;;;;;;13.48;2.67;;;8.50;57.80;;;;;;5011429;28;20046;-49
2023/03/04 06:02:08;;;;;;;7.43;2.25;;;8.50;57.90;;;;;;5011043;28;20049;-51
2023/03/04 06:04:39;;;;;;;8.38;2.95;;;8.50;58.10;;;;;;5011509;28;20060;-52
2023/03/04 06:07:08;;;;;;;7.22;2.83;;;8.50;58.20;;;;;;5012705;28;20046;-51
2023/03/04 06:09:35;;;;;;;8.63;3.28;;;8.50;58.20;;;;;;5011508;28;20060;-50
2023/03/04 06:12:06;;;;;;;12.95;2.65;;;8.50;57.90;;;;;;5011694;28;20057;-49
2023/03/04 06:14:36;;;;;;;5.43;1.95;;;8.50;57.90;;;;;;5011250;28;20124;-51
2023/03/04 06:17:03;;;;;;;7.57;2.30;;;8.50;57.90;;;;;;5012359;28;20117;-48
2023/03/04 06:19:30;;;;;;;9.43;2.47;;;8.50;57.90;;;;;;5011293;28;20064;-51
2023/03/04 06:22:00;;;;;;;5.32;2.30;;;8.50;58.00;;;;;;5011088;28;20078;-50
2023/03/04 06:24:27;;;;;;;7.32;2.53;;;8.50;58.00;;;;;;5011232;28;20398;-49
2023/03/04 06:26:58;;;;;;;12.57;2.85;;;8.50;58.10;;;;;;5004156;28;20069;-49
2023/03/04 06:29:31;;;;;;;9.20;2.28;;;8.50;58.20;;;;;;5012371;28;20072;-49
2023/03/04 06:31:58;;;;;;;7.10;2.40;;;8.50;58.20;;;;;;5008077;28;20052;-49
2023/03/04 06:34:28;;;;;;;6.97;2.33;;;8.50;58.30;;;;;;5010979;28;20413;-49
2023/03/04 06:36:58;;;;;;;10.13;2.80;;;8.60;58.60;;;;;;5044507;23;20394;-47
2023/03/04 06:39:29;;;;;;;5.45;2.90;;;8.50;58.50;;;;;;5033895;28;20048;-47
2023/03/04 06:41:58;;;;;;;10.68;3.20;;;8.50;58.50;;;;;;5029449;28;20087;-47
2023/03/04 06:44:29;;;;;;;7.05;2.92;;;8.50;58.40;;;;;;5033361;28;20075;-48
2023/03/04 06:46:56;;;;;;;7.90;2.65;;;8.50;58.50;;;;;;5033995;28;20049;-52
2023/03/04 06:49:30;;;;;;;7.93;2.80;;;8.50;58.60;;;;;;5033940;28;20437;-48
2023/03/04 06:51:59;;;;;;;4.40;2.60;;;8.50;58.80;;;;;;5023153;28;20042;-49
2023/03/04 06:54:31;;;;;;;6.22;2.63;;;8.50;58.70;;;;;;5026175;28;20045;-48
2023/03/04 06:57:00;;;;;;;5.50;2.13;;;8.50;58.80;;;;;;5027903;28;20033;-50
2023/03/04 06:59:33;;;;;;;8.13;2.40;;;8.50;58.80;;;;;;5033020;28;20068;-49
2023/03/04 07:01:59;;;;;;;4.93;2.30;;;8.50;58.80;;;;;;5028375;28;20040;-48
2023/03/04 07:04:31;;;;;;;8.48;2.28;;;8.50;58.90;;;;;;5025837;28;20095;-48
2023/03/04 07:07:02;;;;;;;10.48;2.85;;;8.50;58.90;;;;;;5029911;28;20457;-49
2023/03/04 07:09:29;;;;;;;8.23;2.47;;;8.60;59.00;;;;;;5014275;28;20052;-48
2023/03/04 07:12:10;;;;;;;5.95;2.25;;;8.60;58.90;;;;;;5025299;28;20103;-49
2023/03/04 07:14:39;;;;;;;8.32;2.30;;;8.50;58.80;;;;;;5029508;28;20045;-47
2023/03/04 07:17:05;;;;;;;8.13;2.22;;;8.50;58.80;;;;;;5027685;28;20041;-49
2023/03/04 07:19:32;;;;;;;7.85;2.83;;;8.50;58.90;;;;;;5029035;28;20132;-52
2023/03/04 07:22:01;;;;;;;10.65;2.88;;;8.50;58.90;;;;;;5023147;28;20042;-52
2023/03/04 07:24:27;;;;;;;10.95;3.40;;;8.60;59.00;;;;;;5022825;28;20116;-53
2023/03/04 07:26:54;;;;;;;5.05;2.35;;;8.60;59.10;;;;;;5028975;28;20056;-52
2023/03/04 07:29:26;;;;;;;9.15;2.92;;;8.60;59.20;;;;;;5022053;28;20072;-52
2023/03/04 07:31:56;;;;;;;8.88;2.83;;;8.60;59.20;;;;;;5028940;28;20065;-49
2023/03/04 07:34:26;;;;;;;;;;;8.60;59.30;;;;;;5029988;28;20444;-52
2023/03/04 07:36:53;;;;;;;5.10;2.45;;;8.70;59.40;;;;;;5028465;28;19929;-52
2023/03/04 07:39:20;;;;;;;4.63;2.40;;;8.60;58.70;;;;;;5026632;28;20492;-53
2023/03/04 07:41:48;;;;;;;5.53;2.63;;;8.70;59.00;;;;;;5029007;28;20045;-52
2023/03/04 07:44:17;;;;;;;5.50;2.67;;;8.70;59.10;;;;;;5020547;28;20048;-51
2023/03/04 07:46:46;;;;;;;8.52;2.67;;;8.70;59.30;;;;;;5028815;28;20111;-53
2023/03/04 07:49:16;;;;;;;4.78;2.28;;;8.70;59.20;;;;;;5029567;28;20118;-48
2023/03/04 07:51:45;;;;;;;7.90;2.90;;;8.70;59.20;;;;;;5016515;28;20060;-48
2023/03/04 07:54:14;;;;;;;8.48;3.33;;;8.70;59.90;;;;;;5025115;28;20062;-49
2023/03/04 07:56:41;;;;;;;10.65;2.90;;;8.80;59.30;;;;;;5009880;28;20041;-51
2023/03/04 07:59:08;;;;;;;7.38;2.38;;;8.80;59.40;;;;;;5026202;28;20477;-51
2023/03/04 08:01:36;;;;;;;8.63;3.25;;;8.80;59.40;;;;;;5028248;28;20049;-49
2023/03/04 08:04:05;;;;;;;8.55;2.90;;;8.80;59.40;;;;;;5019445;28;20510;-53
2023/03/04 08:06:32;;;;;;;15.48;3.58;;;8.80;59.30;;;;;;5024332;28;20065;-49
2023/03/04 08:09:02;;;;;;;6.28;2.35;;;8.90;59.30;;;;;;5028069;28;20056;-49
2023/03/04 08:11:30;;;;;;;5.32;2.63;;;8.90;59.30;;;;;;5025531;28;20056;-52
2023/03/04 08:13:57;;;;;;;9.18;2.92;;;8.90;59.30;;;;;;5025619;28;20069;-51
2023/03/04 08:16:24;;;;;;;6.93;2.35;;;8.90;59.40;;;;;;5029384;28;20541;-48
2023/03/04 08:18:53;;;;;;;5.90;2.10;;;8.90;59.50;;;;;;5030194;28;20042;-47
2023/03/04 08:21:21;;;;;;;4.68;2.20;;;8.90;59.60;;;;;;5023487;28;20045;-51
2023/03/04 08:23:48;;;;;;;5.28;1.88;;;8.90;59.60;;;;;;5026855;28;20446;-50
2023/03/04 08:26:27;;;;;;;4.45;2.28;;;8.90;59.60;;;;;;5029134;28;20053;-49
2023/03/04 08:28:55;;;;;;;3.72;1.83;;;8.90;59.60;;;;;;5027587;28;20052;-48
2023/03/04 08:31:22;;;;;;;5.03;1.67;;;9.00;59.80;;;;;;5027012;28;20049;-50
2023/03/04 08:33:50;;;;;;;5.05;2.28;;;9.00;59.80;;;;;;5029299;28;20117;-48
2023/03/04 08:36:16;;;;;;;8.02;2.47;;;9.00;59.90;;;;;;5028987;28;20187;-48
2023/03/04 08:38:43;;;;;;;7.45;2.30;;;9.00;59.90;;;;;;5009020;28;20034;-49
2023/03/04 08:41:10;;;;;;;3.72;1.98;;;9.00;59.90;;;;;;5024578;28;20037;-48
2023/03/04 08:43:36;;;;;;;5.13;1.92;;;9.10;60.10;;;;;;5028886;28;20052;-50
2023/03/04 08:46:04;;;;;;;4.22;2.10;;;9.10;60.20;;;;;;5029150;28;20137;-51
2023/03/04 08:48:30;;;;;;;8.13;2.53;;;9.10;60.10;;;;;;5024336;28;20096;-49
2023/03/04 08:50:57;;;;;;;7.70;2.28;;;9.10;60.20;;;;;;5026123;28;20045;-48
2023/03/04 08:53:26;;;;;;;5.32;2.05;;;9.20;60.30;;;;;;5025952;28;20116;-49
2023/03/04 08:55:55;;;;;;;8.80;2.30;;;9.20;60.50;;;;;;5028192;28;20049;-46
2023/03/04 08:58:29;;;;;;;6.57;1.70;;;9.30;60.70;;;;;;5028114;28;20120;-45
2023/03/04 09:00:58;;;;;;;7.18;1.77;;;9.30;61.20;;;;;;5026574;28;20045;-46
2023/03/04 09:03:27;;;;;;;5.65;1.77;;;9.30;60.20;;;;;;5028060;28;20061;-49
2023/03/04 09:05:54;;;;;;;5.15;1.65;;;9.40;60.20;;;;;;5028188;28;20107;-50
2023/03/04 09:08:24;;;;;;;3.38;1.65;;;9.40;60.00;;;;;;5024546;28;20414;-48
2023/03/04 09:10:57;;;;;;;4.28;1.20;;;9.50;60.10;;;;;;5023147;28;20409;-50
2023/03/04 09:13:29;;;;;;;4.15;1.40;;;9.50;59.80;;;;;;5033432;28;20154;-46
2023/03/04 09:15:56;;;;;;;6.28;1.58;;;9.50;60.00;;;;;;5032463;28;20061;-48
2023/03/04 09:18:24;;;;;;;8.50;1.95;;;9.50;59.90;;;;;;5030892;28;20080;-50
2023/03/04 09:20:54;;;;;;;4.07;1.88;;;9.50;59.90;;;;;;5027737;28;20045;-50
2023/03/04 09:23:31;;;;;;;;;;;9.50;60.00;;;;;;5029798;28;20048;-49
2023/03/04 09:25:57;;;;;;;2.35;1.23;;;9.60;60.00;;;;;;5032165;28;19925;-49
2023/03/04 09:28:26;;;;;;;2.85;1.40;;;9.70;59.80;;;;;;5031582;28;20103;-48
2023/03/04 09:30:56;;;;;;;4.00;1.38;;;9.70;59.90;;;;;;5023903;28;20544;-49
2023/03/04 09:33:22;;;;;;;3.00;1.75;;;9.80;60.00;;;;;;5033091;28;20049;-51
2023/03/04 09:35:50;;;;;;;6.22;1.90;;;9.80;59.70;;;;;;5031525;28;20049;-48
2023/03/04 09:38:19;;;;;;;3.15;1.33;;;9.90;59.70;;;;;;5031395;28;20076;-50
2023/03/04 09:40:50;;;;;;;2.55;1.40;;;10.00;59.60;;;;;;5029693;28;20041;-48
2023/03/04 09:43:21;;;;;;;4.18;1.95;;;10.00;59.50;;;;;;5033031;28;20041;-50
2023/03/04 09:45:54;;;;;;;2.37;1.33;;;10.10;59.60;;;;;;5031619;28;20041;-48
2023/03/04 09:48:23;;;;;;;4.82;1.60;;;10.10;59.30;;;;;;5026471;28;20052;-49
2023/03/04 09:51:20;;;;;;;4.57;2.33;;;10.20;59.30;;;;;;5025069;28;20104;-48
2023/03/04 09:54:08;;;;;;;7.30;2.22;;;10.20;59.50;;;;;;5031384;28;20096;-51
2023/03/04 09:56:40;;;;;;;4.30;1.52;;;10.30;59.10;;;;;;5019945;28;20057;-48
2023/03/04 09:59:31;;;;;;;3.45;1.40;;;10.30;58.80;;;;;;5021886;28;20129;-51
2023/03/04 10:02:01;;;;;;;4.80;1.75;;;10.40;58.60;;;;;;5025599;28;20057;-53
2023/03/04 10:04:39;;;;;;;10.70;1.92;;;10.30;58.50;;;;;;5022975;28;20508;-50
2023/03/04 10:07:16;;;;;;;5.03;1.70;;;10.30;58.80;;;;;;5020323;28;20428;-51
2023/03/04 10:09:48;;;;;;;3.50;1.70;;;10.40;59.10;;;;;;5031747;28;20304;-48
2023/03/04 10:12:20;;;;;;;5.90;1.38;;;10.40;58.80;;;;;;5024818;28;20546;-48
2023/03/04 10:14:57;;;;;;;6.85;1.67;;;10.40;58.90;;;;;;5024761;28;20442;-49
2023/03/04 10:17:29;;;;;;;2.75;1.27;;;10.50;59.00;;;;;;5028704;28;20043;-50
2023/03/04 10:20:03;;;;;;;3.40;1.73;;;10.50;58.80;;;;;;5030861;28;20112;-50
2023/03/04 10:22:43;;;;;;;1.88;0.98;;;10.60;59.00;;;;;;5027799;28;20059;-50
2023/03/04 10:25:23;;;;;;;4.45;1.15;;;10.60;58.90;;;;;;5030552;28;20060;-48
2023/03/04 10:27:54;;;;;;;3.55;1.05;;;10.60;59.10;;;;;;5031076;28;20037;-49
2023/03/04 10:30:35;;;;;;;3.17;0.80;;;10.60;58.70;;;;;;5028557;28;20048;-49
2023/03/04 10:33:19;;;;;;;4.38;1.27;;;10.70;58.30;;;;;;5031753;28;20092;-47
2023/03/04 10:35:59;;;;;;;2.78;1.23;;;10.80;58.80;;;;;;5030330;28;20033;-48
2023/03/04 10:38:29;;;;;;;2.03;0.80;;;11.00;58.90;;;;;;5026283;28;20038;-46
2023/03/04 10:40:57;;;;;;;3.17;1.48;;;11.10;58.20;;;;;;5029720;28;20037;-46
2023/03/04 10:43:24;;;;;;;1.65;0.82;;;11.10;57.90;;;;;;5032175;28;20405;-46
2023/03/04 10:45:57;;;;;;;5.13;1.48;;;11.20;57.40;;;;;;5028154;28;20493;-48
2023/03/04 10:48:29;;;;;;;4.97;1.13;;;11.20;57.10;;;;;;5025720;28;20590;-47
2023/03/04 10:51:21;;;;;;;7.87;0.93;;;11.20;56.90;;;;;;5023990;28;20057;-50
2023/03/04 10:54:05;;;;;;;4.50;1.38;;;11.20;57.00;;;;;;5025898;28;20305;-49
2023/03/04 10:56:44;;;;;;;0.80;0.73;;;11.10;56.70;;;;;;5029941;28;20042;-49
2023/03/04 10:59:38;;;;;;;4.97;1.42;;;11.10;57.50;;;;;;5027015;28;20044;-50
2023/03/04 11:02:27;;;;;;;3.35;1.17;;;11.00;57.60;;;;;;5028971;28;20033;-49
2023/03/04 11:05:08;;;;;;;3.67;0.95;;;11.00;57.80;;;;;;5030344;28;20034;-46
2023/03/04 11:08:01;;;;;;;4.05;1.40;;;11.00;57.80;;;;;;5028818;28;20042;-49
2023/03/04 11:10:37;;;;;;;;;;;11.10;58.30;;;;;;5022646;28;20050;-45
2023/03/04 11:13:23;;;;;;;3.78;1.17;;;11.10;57.80;;;;;;5030019;28;20468;-49
2023/03/04 11:16:02;;;;;;;2.20;0.90;;;11.10;57.60;;;;;;5030192;28;20095;-47
2023/03/04 11:18:56;;;;;;;2.17;1.05;;;11.10;57.50;;;;;;5023450;28;20116;-47
2023/03/04 11:21:27;;;;;;;2.00;0.82;;;11.10;57.90;;;;;;5026636;28;20037;-49
2023/03/04 11:23:58;;;;;;;6.05;1.65;;;11.00;57.70;;;;;;5027746;28;20048;-49
2023/03/04 11:27:03;;;;;;;4.00;1.33;;;10.90;58.00;;;;;;5024371;28;20046;-46
2023/03/04 11:29:50;;;;;;;5.35;1.23;;;10.90;58.20;;;;;;4971834;28;20068;-48
2023/03/04 11:32:39;;;;;;;2.80;1.10;;;10.90;58.50;;;;;;5020895;28;20457;-48
2023/03/04 11:35:32;;;;;;;4.53;1.33;;;11.00;59.00;;;;;;5023326;28;20048;-48
2023/03/04 11:38:22;;;;;;;3.05;1.17;;;11.00;58.70;;;;;;5022686;28;20607;-48
2023/03/04 11:40:53;;;;;;;;;;;11.10;58.70;;;;;;5029424;28;20041;-48
2023/03/04 11:43:36;;;;;;;1.48;0.82;;;11.20;58.40;;;;;;5028475;28;19921;-47
2023/03/04 11:46:17;;;;;;;1.52;1.15;;;11.10;57.90;;;;;;5028174;28;20045;-50
2023/03/04 11:49:01;;;;;;;1.40;0.70;;;11.10;57.60;;;;;;5024819;28;20417;-49
2023/03/04 11:51:52;;;;;;;4.10;1.27;;;11.10;57.30;;;;;;5025794;28;20045;-51
2023/03/04 11:54:40;;;;;;;2.35;1.20;;;11.10;57.40;;;;;;5024066;28;20048;-49
2023/03/04 11:57:28;;;;;;;2.08;0.85;;;11.00;57.70;;;;;;5029502;28;20482;-49
2023/03/04 12:00:21;;;;;;;2.20;0.85;;;11.00;57.70;;;;;;5024442;28;20044;-49
2023/03/04 12:03:12;;;;;;;3.33;1.17;;;10.90;57.90;;;;;;5025159;28;20405;-49
2023/03/04 12:05:52;;;;;;;3.25;1.35;;;10.90;58.20;;;;;;5025115;28;20037;-50
2023/03/04 12:08:19;;;;;;;3.17;1.52;;;11.00;58.60;;;;;;5020813;28;20057;-48
2023/03/04 12:10:52;;;;;;;5.10;1.50;;;11.00;58.80;;;;;;5028258;28;20037;-48
2023/03/04 12:13:58;;;;;;;1.67;1.20;;;11.10;58.70;;;;;;5021076;28;20084;-47
2023/03/04 12:16:42;;;;;;;3.10;1.13;;;11.30;58.40;;;;;;5027582;28;20508;-49
2023/03/04 12:19:11;;;;;;;3.45;1.77;;;11.40;58.20;;;;;;5023818;28;20096;-45
2023/03/04 12:22:02;;;;;;;3.50;0.98;;;11.50;58.10;;;;;;5023716;28;20095;-50
2023/03/04 12:25:02;;;;;;;2.45;1.10;;;11.50;57.80;;;;;;5023800;28;20049;-48
2023/03/04 12:27:39;;;;;;;3.25;1.10;;;11.70;58.00;;;;;;5029032;28;20048;-48
2023/03/04 12:30:33;;;;;;;1.25;0.95;;;11.80;57.90;;;;;;5023377;28;20514;-46
2023/03/04 12:33:24;;;;;;;2.20;1.13;;;11.90;57.60;;;;;;5029608;28;20049;-47
2023/03/04 12:36:05;;;;;;;3.72;1.13;;;12.00;57.10;;;;;;5029309;28;20049;-50
2023/03/04 12:38:51;;;;;;;1.50;1.05;;;12.10;56.90;;;;;;5024158;28;20413;-47
2023/03/04 12:41:46;;;;;;;2.10;0.95;;;12.20;56.80;;;;;;5025708;28;20045;-46
2023/03/04 12:44:17;;;;;;;0.80;0.75;;;12.30;56.60;;;;;;5031807;28;20509;-50
2023/03/04 12:47:10;;;;;;;2.72;1.10;;;12.30;56.20;;;;;;5033568;28;20103;-48
2023/03/04 12:49:50;;;;;;;1.13;0.70;;;12.30;55.50;;;;;;5028158;28;20048;-47
2023/03/04 12:52:33;;;;;;;2.22;1.10;;;12.30;55.70;;;;;;5021277;28;20501;-50
2023/03/04 12:55:16;;;;;;;0.98;0.80;;;12.20;55.60;;;;;;5028913;28;20041;-46
2023/03/04 12:57:42;;;;;;;1.60;0.98;;;12.10;55.60;;;;;;5033638;28;20048;-49
2023/03/04 13:00:12;;;;;;;1.65;0.90;;;12.00;55.50;;;;;;5026367;28;20045;-48
2023/03/04 13:02:58;;;;;;;2.27;1.17;;;12.00;55.70;;;;;;5028973;28;20076;-46
2023/03/04 13:05:34;;;;;;;2.42;0.68;;;11.90;55.80;;;;;;5034039;28;20041;-50
2023/03/04 13:08:12;;;;;;;1.85;1.02;;;11.80;56.10;;;;;;5025869;28;20125;-45
2023/03/04 13:10:39;;;;;;;3.42;1.38;;;11.70;56.50;;;;;;5033000;28;20041;-47
2023/03/04 13:13:31;;;;;;;1.52;0.80;;;11.60;56.40;;;;;;5027393;28;20610;-48
2023/03/04 13:16:22;;;;;;;1.73;1.08;;;11.60;56.50;;;;;;5025229;28;20045;-47
2023/03/04 13:18:48;;;;;;;2.80;1.00;;;11.50;56.70;;;;;;5032259;28;20053;-47
2023/03/04 13:21:23;;;;;;;2.05;0.85;;;11.50;56.60;;;;;;5029201;28;20056;-46
2023/03/04 13:23:51;;;;;;;1.30;0.82;;;11.50;56.60;;;;;;5015663;28;20502;-47